Time;durP1;ratioP1;P1;durP2;ratioP2;P2;SDS_P1;SDS_P2;PMS_P1;PMS_P2;Temp;Humidity;BMP_temperature;BMP_pressure;BME280_temperature;BME280_humidity;BME280_pressure;Samples;Min_cycle;Max_cycle;Signal;HPM_P1;HPM_P2
2022/01/24 00:01:58;;;;;;;37.88;20.90;;;;;;;-5.48;100.00;101598.77;1639990;86;21123;-84
2022/01/24 00:04:26;;;;;;;40.40;21.50;;;;;;;-5.49;100.00;101595.83;1639704;85;21087;-84
2022/01/24 00:06:54;;;;;;;37.80;20.27;;;;;;;-5.47;100.00;101599.20;1641341;85;21507;-85
2022/01/24 00:09:21;;;;;;;35.25;19.50;;;;;;;-5.45;100.00;101598.80;1640170;87;21805;-85
2022/01/24 00:17:16;;;;;;;31.42;18.10;;;;;;;-5.44;100.00;101597.09;1627598;87;21690;-85
2022/01/24 00:28:04;;;;;;;33.20;16.55;;;;;;;-5.39;100.00;101607.72;1703213;83;21556;-86
2022/01/24 00:30:33;;;;;;;31.50;17.52;;;;;;;-5.37;100.00;101588.71;1701941;84;21501;-85
2022/01/24 00:33:01;;;;;;;36.68;18.73;;;;;;;-5.38;100.00;101588.28;1703762;83;21666;-85
2022/01/24 00:35:28;;;;;;;34.25;20.65;;;;;;;-5.39;100.00;101573.45;1703850;83;21774;-85
2022/01/24 00:37:59;;;;;;;32.78;20.05;;;;;;;-5.39;100.00;101568.80;1663127;85;21161;-86
2022/01/24 00:40:26;;;;;;;28.67;14.85;;;;;;;-5.39;100.00;101563.29;1656727;85;21089;-86
2022/01/24 00:42:58;;;;;;;32.60;18.12;;;;;;;-5.40;100.00;101571.74;1692113;84;21102;-86
2022/01/24 00:45:36;;;;;;;35.58;20.32;;;;;;;-5.40;100.00;101573.02;1710768;83;21632;-86
2022/01/24 00:56:04;;;;;;;33.33;19.05;;;;;;;-5.39;100.00;101573.45;1675738;85;21053;-88
2022/01/24 00:58:32;;;;;;;38.33;20.60;;;;;;;-5.39;100.00;101568.37;1685525;84;21060;-86
2022/01/24 01:00:59;;;;;;;31.80;18.70;;;;;;;-5.39;100.00;101581.06;1685145;83;21152;-88
2022/01/24 01:03:27;;;;;;;34.23;18.65;;;;;;;-5.37;100.00;101582.77;1674725;85;21041;-87
2022/01/24 01:06:07;;;;;;;34.78;18.85;;;;;;;-5.37;100.00;101574.75;1685355;83;21517;-86
2022/01/24 01:19:45;;;;;;;31.73;17.50;;;;;;;-5.35;100.00;101570.94;1684923;83;21010;-86
2022/01/24 01:22:12;;;;;;;33.50;18.17;;;;;;;-5.36;100.00;101572.61;1684768;83;21498;-88
2022/01/24 01:24:47;;;;;;;33.15;18.45;;;;;;;-5.35;100.00;101558.24;1685295;83;21569;-89
2022/01/24 01:27:15;;;;;;;30.82;17.23;;;;;;;-5.34;100.00;101559.95;1683552;83;21203;-86
2022/01/24 01:29:57;;;;;;;29.67;17.23;;;;;;;-5.32;100.00;101550.62;1683663;83;21084;-88
2022/01/24 01:32:44;;;;;;;34.80;16.95;;;;;;;-5.32;100.00;101554.03;1683849;83;21618;-86
2022/01/24 01:37:47;;;;;;;32.17;18.65;;;;;;;-5.34;100.00;101548.09;1685803;83;21034;-85
2022/01/24 01:56:08;;;;;;;30.43;16.70;;;;;;;-5.29;100.00;101548.11;1703170;83;21090;-88
2022/01/24 01:58:35;;;;;;;33.60;18.48;;;;;;;-5.28;100.00;101540.93;1713346;83;21038;-85
2022/01/24 02:01:04;;;;;;;31.25;16.87;;;;;;;-5.26;100.00;101541.80;1705115;83;21046;-85
2022/01/24 02:03:33;;;;;;;31.15;17.77;;;;;;;-5.26;100.00;101543.06;1703504;83;21066;-86
2022/01/24 02:06:01;;;;;;;32.08;19.15;;;;;;;-5.26;100.00;101549.41;1714016;83;21813;-88
2022/01/24 02:08:31;;;;;;;29.60;17.98;;;;;;;-5.24;100.00;101548.98;1705032;84;21541;-88
2022/01/24 02:10:59;;;;;;;32.20;18.25;;;;;;;-5.23;100.00;101555.76;1684341;83;21086;-86
2022/01/24 02:13:29;;;;;;;29.63;17.52;;;;;;;-5.23;100.00;101553.22;1706498;83;21481;-87
2022/01/24 02:16:15;;;;;;;33.78;18.32;;;;;;;-5.21;100.00;101560.44;1683952;84;21644;-86
2022/01/24 02:18:50;;;;;;;30.05;17.67;;;;;;;-5.19;100.00;101566.78;1703966;83;21838;-87
2022/01/24 02:23:59;;;;;;;29.72;17.65;;;;;;;-5.20;100.00;101576.11;1641671;83;21080;-88
2022/01/24 02:26:28;;;;;;;36.05;18.85;;;;;;;-5.20;100.00;101585.00;1683900;84;21055;-87
2022/01/24 02:31:43;;;;;;;30.25;16.15;;;;;;;-5.19;100.00;101590.91;1655619;86;21771;-88
2022/01/24 02:34:33;;;;;;;32.33;18.07;;;;;;;-5.20;100.00;101581.19;1714430;82;21512;-89
2022/01/24 02:37:07;;;;;;;28.90;17.17;;;;;;;-5.22;100.00;101575.23;1700443;83;21025;-86
2022/01/24 02:53:01;;;;;;;33.58;17.25;;;;;;;-5.26;100.00;101572.27;1667417;85;21086;-87
2022/01/24 02:55:28;;;;;;;29.72;16.40;;;;;;;-5.27;100.00;101582.83;1684586;85;21047;-85
2022/01/24 02:57:55;;;;;;;26.65;15.63;;;;;;;-5.27;100.00;101583.27;1661580;83;21800;-87
2022/01/24 03:00:24;;;;;;;30.57;18.05;;;;;;;-5.27;100.00;101562.52;1685225;83;21114;-85
2022/01/24 03:02:52;;;;;;;27.02;16.27;;;;;;;-5.27;100.00;101561.67;1685251;83;21097;-86
2022/01/24 03:05:19;;;;;;;24.35;14.38;;;;;;;-5.27;100.00;101569.30;1685230;84;21063;-85
2022/01/24 03:07:46;;;;;;;29.20;16.17;;;;;;;-5.29;100.00;101571.84;1684764;84;21026;-83
2022/01/24 03:10:24;;;;;;;30.45;17.75;;;;;;;-5.29;100.00;101576.05;1685023;85;21146;-84
2022/01/24 03:12:45;;;;;;;28.38;16.65;;;;;;;-5.29;100.00;101574.78;1664720;84;22214;-83
2022/01/24 03:15:13;;;;;;;27.07;15.32;;;;;;;-5.30;100.00;101575.61;1654756;84;21072;-85
2022/01/24 03:17:41;;;;;;;32.50;15.78;;;;;;;-5.29;100.00;101590.02;1646411;87;21062;-85
2022/01/24 03:20:09;;;;;;;29.72;15.63;;;;;;;-5.30;100.00;101585.77;1646520;86;21110;-86
2022/01/24 03:22:37;;;;;;;30.05;17.15;;;;;;;-5.31;100.00;101577.31;1646586;86;21160;-87
2022/01/24 03:25:05;;;;;;;26.87;15.10;;;;;;;-5.29;100.00;101583.66;1646396;86;21688;-87
2022/01/24 03:27:32;;;;;;;26.35;16.65;;;;;;;-5.29;100.00;101584.94;1646796;86;21083;-86
2022/01/24 03:30:00;;;;;;;24.90;14.35;;;;;;;-5.30;100.00;101586.64;1645957;86;21078;-86
2022/01/24 03:32:27;;;;;;;27.05;15.43;;;;;;;-5.30;100.00;101587.91;1653212;85;21074;-85
2022/01/24 03:34:56;;;;;;;27.65;15.90;;;;;;;-5.30;100.00;101593.39;1656918;86;21112;-87
2022/01/24 03:37:23;;;;;;;27.62;16.05;;;;;;;-5.31;100.00;101593.83;1657078;86;21075;-86
2022/01/24 03:39:51;;;;;;;44.30;21.80;;;;;;;-5.31;100.00;101600.17;1656971;85;21780;-86
2022/01/24 03:42:18;;;;;;;25.37;16.52;;;;;;;-5.30;100.00;101587.04;1657049;86;21170;-85
2022/01/24 03:44:47;;;;;;;21.70;12.47;;;;;;;-5.31;100.00;101592.95;1629146;87;21066;-85
2022/01/24 03:50:05;;;;;;;22.27;14.83;;;;;;;-5.34;100.00;101595.49;1628708;88;22068;-85
2022/01/24 03:52:32;;;;;;;29.05;15.70;;;;;;;-5.35;100.00;101597.16;1629076;87;21078;-86
2022/01/24 03:55:03;;;;;;;38.50;25.52;;;;;;;-5.37;100.00;101611.56;1629312;86;21124;-86
2022/01/24 03:57:30;;;;;;;27.80;14.95;;;;;;;-5.38;100.00;101602.24;1631551;85;27071;-87
2022/01/24 03:59:57;;;;;;;28.23;15.70;;;;;;;-5.39;100.00;101610.26;1627803;86;21214;-87
2022/01/24 04:02:27;;;;;;;25.50;15.13;;;;;;;-5.38;100.00;101604.78;1584579;86;21134;-86
2022/01/24 04:04:55;;;;;;;26.20;15.53;;;;;;;-5.37;100.00;101604.34;1601328;89;21154;-88
2022/01/24 04:07:22;;;;;;;28.57;14.43;;;;;;;-5.40;100.00;101606.45;1628394;86;21248;-86
2022/01/24 04:09:50;;;;;;;27.32;15.10;;;;;;;-5.39;100.00;101617.04;1627917;86;21169;-85
2022/01/24 04:12:17;;;;;;;27.55;16.67;;;;;;;-5.40;100.00;101622.52;1620854;87;21175;-84
2022/01/24 04:22:30;;;;;;;23.57;14.75;;;;;;;-5.40;100.00;101631.41;1622254;86;21071;-86
2022/01/24 04:25:02;;;;;;;23.47;13.28;;;;;;;-5.41;100.00;101636.05;1641327;87;22605;-89
2022/01/24 04:27:31;;;;;;;25.30;14.98;;;;;;;-5.42;100.00;101642.00;1644561;87;21077;-86
2022/01/24 04:29:58;;;;;;;30.68;15.30;;;;;;;-5.44;100.00;101636.05;1644525;87;21690;-82
2022/01/24 04:32:25;;;;;;;24.80;15.58;;;;;;;-5.43;100.00;101634.34;1649390;85;21557;-85
2022/01/24 04:34:52;;;;;;;27.05;15.13;;;;;;;-5.41;100.00;101639.02;1624209;87;21459;-85
2022/01/24 04:37:19;;;;;;;23.80;14.38;;;;;;;-5.41;100.00;101638.59;1658466;86;21828;-85
2022/01/24 04:39:47;;;;;;;23.47;14.40;;;;;;;-5.39;100.00;101655.13;1654586;85;21121;-87
2022/01/24 04:42:24;;;;;;;25.68;14.53;;;;;;;-5.42;100.00;101643.66;1654408;85;21100;-85
2022/01/24 04:45:07;;;;;;;27.60;16.27;;;;;;;-5.42;100.00;101652.16;1651607;85;21068;-84
2022/01/24 04:47:31;;;;;;;35.00;18.12;;;;;;;-5.43;100.00;101656.80;1654247;85;21025;-87
2022/01/24 04:55:09;;;;;;;27.67;15.08;;;;;;;-5.41;100.00;101661.44;1653628;86;21471;-88
2022/01/24 04:57:36;;;;;;;27.48;15.72;;;;;;;-5.43;100.00;101664.81;1653383;85;21784;-89
2022/01/24 05:00:21;;;;;;;;;;;;;;;;;;;;;
2022/01/24 05:02:49;;;;;;;23.40;13.95;;;;;;;-5.51;100.00;101658.82;1656863;85;21094;-89
2022/01/24 05:05:19;;;;;;;24.52;14.13;;;;;;;-5.56;100.00;101657.11;1637542;86;21125;-90
2022/01/24 05:07:46;;;;;;;26.10;13.35;;;;;;;-5.58;100.00;101655.40;1648443;85;21154;-90
2022/01/24 05:10:30;;;;;;;25.75;14.25;;;;;;;-5.61;100.00;101651.55;1621045;88;21069;-87
2022/01/24 05:26:05;;;;;;;23.10;13.60;;;;;;;-5.73;100.00;101662.02;1683430;84;22098;-89
2022/01/24 05:28:35;;;;;;;22.00;13.05;;;;;;;-5.73;100.00;101662.45;1657611;85;21166;-88
2022/01/24 05:31:04;;;;;;;24.02;14.03;;;;;;;-5.73;100.00;101667.09;1632451;86;21414;-89
2022/01/24 05:33:33;;;;;;;23.50;14.47;;;;;;;-5.75;100.00;101668.78;1631484;86;21115;-88
2022/01/24 05:36:02;;;;;;;21.65;12.75;;;;;;;-5.75;100.00;101662.84;1653027;86;21059;-89
2022/01/24 05:38:29;;;;;;;24.98;14.10;;;;;;;-5.76;100.00;101672.16;1631569;86;21079;-88
2022/01/24 05:40:58;;;;;;;17.57;10.25;;;;;;;-5.76;100.00;101681.44;1651888;84;21134;-89
2022/01/24 05:43:25;;;;;;;21.85;12.70;;;;;;;-5.76;100.00;101689.92;1655538;84;21546;-87
2022/01/24 05:45:52;;;;;;;24.57;14.80;;;;;;;-5.76;100.00;101681.44;1668232;85;21102;-89
2022/01/24 05:48:19;;;;;;;22.20;13.53;;;;;;;-5.78;100.00;101688.20;1622405;88;21549;-90
2022/01/24 05:50:46;;;;;;;20.62;12.13;;;;;;;-5.78;100.00;101689.05;1682129;85;21089;-90
2022/01/24 05:53:15;;;;;;;20.60;12.33;;;;;;;-5.78;100.00;101696.66;1659322;85;21152;-88
2022/01/24 05:55:42;;;;;;;27.27;14.95;;;;;;;-5.78;100.00;101692.84;1653560;85;21102;-86
2022/01/24 05:58:09;;;;;;;19.25;11.75;;;;;;;-5.78;100.00;101699.20;1654033;86;21130;-87
2022/01/24 06:00:37;;;;;;;20.40;12.33;;;;;;;-5.77;100.00;101699.62;1596053;89;21106;-88
2022/01/24 06:03:04;;;;;;;21.50;12.33;;;;;;;-5.78;100.00;101706.80;1653059;86;21414;-90
2022/01/24 06:05:31;;;;;;;27.62;15.23;;;;;;;-5.78;100.00;101702.16;1654623;86;21514;-87
2022/01/24 06:07:58;;;;;;;21.45;11.73;;;;;;;-5.76;100.00;101707.68;1624064;88;21147;-87
2022/01/24 06:10:25;;;;;;;22.55;12.93;;;;;;;-5.76;100.00;101706.41;1653267;85;21042;-91
2022/01/24 06:12:52;;;;;;;22.62;13.65;;;;;;;-5.74;100.00;101703.48;1653216;86;21057;-90
2022/01/24 06:15:19;;;;;;;23.02;13.95;;;;;;;-5.74;100.00;101711.09;1654356;86;21571;-88
2022/01/24 06:17:46;;;;;;;23.00;11.63;;;;;;;-5.73;100.00;101715.30;1654268;86;21177;-87
2022/01/24 06:20:13;;;;;;;25.27;14.13;;;;;;;-5.73;100.00;101712.77;1631227;86;21065;-88
2022/01/24 06:22:41;;;;;;;24.32;13.53;;;;;;;-5.72;100.00;101722.09;1654397;86;21062;-87
2022/01/24 06:25:10;;;;;;;22.25;13.58;;;;;;;-5.71;100.00;101719.15;1654345;86;21200;-88
2022/01/24 06:27:37;;;;;;;20.70;11.97;;;;;;;-5.68;100.00;101722.13;1654371;86;21030;-89
2022/01/24 06:30:05;;;;;;;22.85;13.32;;;;;;;-5.68;100.00;101719.59;1654321;86;22149;-87
2022/01/24 06:32:32;;;;;;;21.75;12.82;;;;;;;-5.68;100.00;101722.97;1654332;85;21544;-87
2022/01/24 06:35:00;;;;;;;22.05;13.05;;;;;;;-5.67;100.00;101715.79;1653844;85;21087;-88
2022/01/24 06:37:28;;;;;;;21.20;13.32;;;;;;;-5.66;100.00;101711.58;1654246;85;21101;-86
2022/01/24 06:39:56;;;;;;;23.35;12.95;;;;;;;-5.65;100.00;101715.39;1654687;84;21176;-88
2022/01/24 06:42:24;;;;;;;22.40;13.60;;;;;;;-5.63;100.00;101709.05;1666826;83;21911;-89
2022/01/24 06:44:53;;;;;;;23.98;14.73;;;;;;;-5.62;100.00;101715.44;1668072;84;21084;-88
2022/01/24 06:47:27;;;;;;;21.15;12.95;;;;;;;-5.57;100.00;101715.48;1658361;84;21074;-87
2022/01/24 06:49:55;;;;;;;23.42;13.58;;;;;;;-5.54;100.00;101712.95;1671955;85;21823;-87
2022/01/24 06:52:22;;;;;;;22.22;12.75;;;;;;;-5.52;100.00;101720.17;1673714;83;21098;-89
2022/01/24 06:54:50;;;;;;;25.35;13.50;;;;;;;-5.49;100.00;101725.69;1663002;84;21658;-88
2022/01/24 06:57:17;;;;;;;20.40;13.10;;;;;;;-5.47;100.00;101717.25;1658235;83;21080;-88
2022/01/24 06:59:48;;;;;;;22.45;13.85;;;;;;;-5.46;100.00;101724.47;1628556;84;21145;-87
2022/01/24 07:02:15;;;;;;;22.20;13.62;;;;;;;-5.43;100.00;101714.31;1654428;86;21603;-88
2022/01/24 07:04:43;;;;;;;22.75;13.00;;;;;;;-5.41;100.00;101719.83;1632138;86;21087;-88
2022/01/24 07:07:13;;;;;;;24.72;14.03;;;;;;;-5.36;100.00;101715.23;1631386;85;21083;-90
2022/01/24 07:09:44;;;;;;;21.83;12.63;;;;;;;-5.35;100.00;101716.50;1639649;85;21026;-87
2022/01/24 07:12:13;;;;;;;23.38;14.70;;;;;;;-5.33;100.00;101715.27;1614975;86;21082;-89
2022/01/24 07:14:41;;;;;;;25.43;13.90;;;;;;;-5.31;100.00;101719.92;1593437;87;21127;-87
2022/01/24 07:17:34;;;;;;;23.42;13.58;;;;;;;-5.28;100.00;101720.80;1621476;86;21620;-89
2022/01/24 07:19:47;;;;;;;21.90;14.45;;;;;;;-5.26;100.00;101725.91;1638539;86;21186;-89
2022/01/24 07:22:14;;;;;;;19.95;12.40;;;;;;;-5.22;100.00;101720.00;1623418;85;21165;-89
2022/01/24 07:24:42;;;;;;;21.62;13.08;;;;;;;-5.18;100.00;101728.09;1606684;87;21207;-86
2022/01/24 07:27:09;;;;;;;25.32;14.25;;;;;;;-5.13;100.00;101728.97;1606118;87;21083;-87
2022/01/24 07:29:37;;;;;;;22.80;14.35;;;;;;;-5.07;100.00;101730.28;1624670;86;21074;-90
2022/01/24 07:32:05;;;;;;;23.20;13.53;;;;;;;-5.01;100.00;101731.19;1663495;85;21170;-89
2022/01/24 07:34:32;;;;;;;20.32;12.55;;;;;;;-4.92;100.00;101731.23;1669519;85;21122;-88
2022/01/24 07:37:00;;;;;;;23.55;14.13;;;;;;;-4.89;100.00;101736.77;1670477;85;21757;-88
2022/01/24 07:39:28;;;;;;;22.82;14.25;;;;;;;-4.88;100.00;101734.23;1671818;85;21046;-88
2022/01/24 07:42:03;;;;;;;25.48;16.00;;;;;;;-4.87;100.00;101734.67;1672019;84;21080;-85
2022/01/24 07:44:25;;;;;;;23.40;13.55;;;;;;;-4.84;100.00;101742.73;1637942;86;21394;-88
2022/01/24 07:46:53;;;;;;;22.17;14.43;;;;;;;-4.82;100.00;101744.44;1628867;87;21562;-90
2022/01/24 07:49:20;;;;;;;24.20;14.07;;;;;;;-4.79;100.00;101747.01;1671093;85;21021;-89
2022/01/24 07:51:47;;;;;;;31.65;16.82;;;;;;;-4.73;100.00;101744.06;1671349;85;21009;-88
2022/01/24 07:54:14;;;;;;;25.50;14.55;;;;;;;-4.67;100.00;101754.27;1671894;84;21036;-87
2022/01/24 07:56:42;;;;;;;24.57;14.05;;;;;;;-4.62;100.00;101751.36;1650156;85;21155;-89
2022/01/24 07:59:11;;;;;;;24.52;13.78;;;;;;;-4.60;100.00;101745.84;1671225;85;21108;-92
2022/01/24 08:01:41;;;;;;;24.52;14.18;;;;;;;-4.57;100.00;101750.11;1647069;85;21080;-90
2022/01/24 08:04:07;;;;;;;26.02;12.47;;;;;;;-4.56;100.00;101751.38;1643354;85;21113;-91
2022/01/24 08:06:35;;;;;;;22.05;14.30;;;;;;;-4.60;100.00;101756.00;1656836;85;21057;-91
2022/01/24 08:09:05;;;;;;;29.72;16.20;;;;;;;-4.66;100.00;101754.30;1649119;85;21958;-91
2022/01/24 08:11:32;;;;;;;21.55;13.53;;;;;;;-4.64;100.00;101760.22;1646755;85;21105;-89
2022/01/24 08:14:00;;;;;;;22.50;13.98;;;;;;;-4.65;100.00;101761.48;1676123;84;21141;-89
2022/01/24 08:16:27;;;;;;;25.23;15.40;;;;;;;-4.64;100.00;101760.66;1688791;84;21129;-90
2022/01/24 08:18:57;;;;;;;24.87;14.15;;;;;;;-4.60;100.00;101764.50;1679939;83;21045;-89
2022/01/24 08:21:25;;;;;;;35.10;17.77;;;;;;;-4.55;100.00;101770.02;1684393;83;21054;-90
2022/01/24 08:23:52;;;;;;;27.37;15.08;;;;;;;-4.51;100.00;101763.69;1696300;83;21103;-90
2022/01/24 08:26:19;;;;;;;24.15;14.83;;;;;;;-4.44;100.00;101767.12;1683422;83;21682;-89
2022/01/24 08:28:47;;;;;;;18.50;11.35;;;;;;;-4.39;100.00;101762.08;1674587;83;21082;-88
2022/01/24 08:31:17;;;;;;;21.45;13.40;;;;;;;-4.38;100.00;101758.69;1693574;82;21503;-91
2022/01/24 08:33:56;;;;;;;22.30;13.28;;;;;;;-4.40;100.00;101765.45;1699597;83;21861;-89
2022/01/24 08:36:23;;;;;;;24.67;13.70;;;;;;;-4.42;100.00;101769.67;1652900;84;21123;-89
2022/01/24 08:38:52;;;;;;;22.17;13.10;;;;;;;-4.41;100.00;101758.27;1701561;83;21042;-89
2022/01/24 08:41:29;;;;;;;25.45;13.43;;;;;;;-4.37;100.00;101757.85;1698487;83;21156;-91
2022/01/24 08:43:59;;;;;;;22.55;12.53;;;;;;;-4.32;100.00;101762.09;1674735;85;21511;-90
2022/01/24 08:46:21;;;;;;;22.98;14.75;;;;;;;-4.26;100.00;101756.20;1684439;84;21169;-90
2022/01/24 08:48:51;;;;;;;23.42;13.75;;;;;;;-4.23;100.00;101752.41;1702824;83;21046;-90
2022/01/24 08:51:18;;;;;;;25.72;13.93;;;;;;;-4.19;100.00;101755.37;1683834;84;21043;-92
2022/01/24 08:53:45;;;;;;;22.77;13.20;;;;;;;-4.17;100.00;101752.42;1693212;83;21062;-92
2022/01/24 08:56:13;;;;;;;19.95;12.90;;;;;;;-4.14;100.00;101758.81;1701298;83;21568;-93
2022/01/24 08:58:41;;;;;;;22.25;12.18;;;;;;;-4.10;100.00;101753.72;1707064;83;21143;-90
2022/01/24 09:01:08;;;;;;;22.82;15.25;;;;;;;-4.08;100.00;101751.60;1697862;83;21097;-91
2022/01/24 09:03:41;;;;;;;24.12;15.30;;;;;;;-4.03;100.00;101749.08;1704378;83;21492;-92
2022/01/24 09:06:09;;;;;;;19.55;12.90;;;;;;;-4.02;100.00;101745.29;1673315;85;21020;-91
2022/01/24 09:08:38;;;;;;;19.65;11.80;;;;;;;-3.96;100.00;101744.44;1704390;83;21030;-91
2022/01/24 09:11:05;;;;;;;21.57;13.18;;;;;;;-3.94;100.00;101738.94;1685836;83;21111;-88
2022/01/24 09:13:33;;;;;;;22.82;13.53;;;;;;;-3.94;100.00;101738.09;1682586;84;21509;-91
2022/01/24 09:16:01;;;;;;;20.27;14.18;;;;;;;-3.96;100.00;101744.44;1674421;85;21042;-89
2022/01/24 09:18:30;;;;;;;20.35;13.30;;;;;;;-3.97;100.00;101738.51;1656357;85;21090;-89
2022/01/24 09:20:58;;;;;;;21.10;13.80;;;;;;;-3.90;100.00;101734.30;1685844;83;21097;-89
2022/01/24 09:23:25;;;;;;;21.68;13.43;;;;;;;-3.83;100.00;101732.20;1663651;84;21166;-87
2022/01/24 09:25:53;;;;;;;21.00;12.93;;;;;;;-3.77;100.00;101730.50;1667853;84;21093;-87
2022/01/24 09:28:20;;;;;;;37.63;12.68;;;;;;;-3.76;100.00;101730.93;1670560;84;21022;-88
2022/01/24 09:30:48;;;;;;;23.65;14.10;;;;;;;-3.73;100.00;101729.23;1685848;83;21518;-87
2022/01/24 09:33:18;;;;;;;20.15;12.55;;;;;;;-3.65;100.00;101728.83;1670897;85;21047;-87
2022/01/24 09:35:46;;;;;;;19.40;13.00;;;;;;;-3.58;100.00;101731.38;1642623;86;21217;-91
2022/01/24 09:38:16;;;;;;;25.50;14.80;;;;;;;-3.59;100.00;101735.64;1697454;83;21034;-87
2022/01/24 09:40:47;;;;;;;19.40;12.63;;;;;;;-3.59;100.00;101733.09;1656045;84;21697;-87
2022/01/24 09:43:14;;;;;;;21.37;14.45;;;;;;;-3.61;100.00;101729.69;1666333;83;21088;-89
2022/01/24 09:45:42;;;;;;;19.45;12.78;;;;;;;-3.60;100.00;101726.30;1683660;83;21073;-88
2022/01/24 09:48:13;;;;;;;17.98;12.13;;;;;;;-3.61;100.00;101730.12;1660020;85;21111;-88
2022/01/24 09:50:41;;;;;;;17.95;10.78;;;;;;;-3.67;100.00;101725.42;1683653;85;21682;-87
2022/01/24 09:53:09;;;;;;;20.95;12.33;;;;;;;-3.70;100.00;101724.58;1698237;83;21072;-90
2022/01/24 09:55:36;;;;;;;20.02;12.58;;;;;;;-3.71;100.00;101733.92;1665494;85;21462;-88
2022/01/24 09:58:04;;;;;;;18.48;11.68;;;;;;;-3.72;100.00;101723.71;1660030;85;21114;-89
2022/01/24 10:00:31;;;;;;;27.15;16.25;;;;;;;-3.72;100.00;101722.44;1655385;85;21083;-88
2022/01/24 10:02:58;;;;;;;21.15;13.98;;;;;;;-3.71;100.00;101724.14;1655813;86;21140;-88
2022/01/24 10:05:37;;;;;;;26.35;16.37;;;;;;;-3.68;100.00;101728.81;1683451;85;21122;-88
2022/01/24 10:08:24;;;;;;;35.70;17.57;;;;;;;-3.67;100.00;101719.50;1639650;84;21747;-89
2022/01/24 10:10:59;;;;;;;20.17;11.22;;;;;;;-3.65;100.00;101716.54;1683168;85;21102;-88
2022/01/24 10:16:36;;;;;;;21.10;10.98;;;;;;;-3.67;100.00;101721.61;1681494;84;21062;-88
2022/01/24 10:19:21;;;;;;;18.98;11.35;;;;;;;-3.68;100.00;101727.54;1682326;84;21425;-89
2022/01/24 10:21:55;;;;;;;20.45;11.60;;;;;;;-3.68;100.00;101721.17;1683537;85;21588;-87
2022/01/24 10:24:41;;;;;;;19.45;10.98;;;;;;;-3.64;100.00;101724.58;1685212;83;21080;-88
2022/01/24 10:27:17;;;;;;;20.72;11.35;;;;;;;-3.63;100.00;101715.27;1665318;84;21097;-87
2022/01/24 10:30:03;;;;;;;18.25;11.60;;;;;;;-3.59;100.00;101715.27;1696181;83;21065;-86
2022/01/24 10:33:04;;;;;;;21.97;12.23;;;;;;;-3.54;100.00;101711.02;1694389;83;21026;-88
2022/01/24 10:35:45;;;;;;;18.73;10.82;;;;;;;-3.49;100.00;101711.89;1650048;85;21101;-88
2022/01/24 10:38:30;;;;;;;20.50;10.90;;;;;;;-3.52;100.00;101716.97;1700883;83;21873;-88
2022/01/24 10:41:12;;;;;;;19.12;10.48;;;;;;;-3.56;100.00;101710.59;1699948;84;21481;-88
2022/01/24 10:43:56;;;;;;;;;;;;;;;;;;;;;
2022/01/24 10:46:27;;;;;;;16.73;10.38;;;;;;;-3.59;100.00;101715.27;1646780;85;21123;-90
2022/01/24 10:49:09;;;;;;;18.62;11.83;;;;;;;-3.57;100.00;101711.03;1684691;85;21097;-91
2022/01/24 10:51:40;;;;;;;16.40;10.30;;;;;;;-3.55;100.00;101714.84;1687080;84;21093;-90
2022/01/24 10:54:07;;;;;;;14.20;9.90;;;;;;;-3.55;100.00;101712.30;1688219;84;21831;-90
2022/01/24 10:56:45;;;;;;;18.77;11.03;;;;;;;-3.55;100.00;101709.31;1684475;83;21145;-88
2022/01/24 10:59:22;;;;;;;17.80;10.40;;;;;;;-3.54;100.00;101712.30;1673722;85;21106;-89
2022/01/24 11:01:53;;;;;;;15.78;9.58;;;;;;;-3.56;100.00;101700.41;1683407;85;21098;-90
2022/01/24 11:04:23;;;;;;;17.00;10.15;;;;;;;-3.60;100.00;101703.78;1680136;84;27057;-88
2022/01/24 11:06:56;;;;;;;15.88;10.18;;;;;;;-3.60;100.00;101704.66;1684173;85;21864;-87
2022/01/24 11:09:35;;;;;;;16.75;10.20;;;;;;;-3.62;100.00;101705.06;1667154;84;21095;-87
2022/01/24 11:12:12;;;;;;;24.02;11.35;;;;;;;-3.65;100.00;101707.63;1678815;83;21410;-87
2022/01/24 11:14:42;;;;;;;16.42;10.15;;;;;;;-3.68;100.00;101707.61;1684439;83;21074;-89
2022/01/24 11:17:14;;;;;;;17.57;11.05;;;;;;;-3.67;100.00;101705.50;1656425;85;21133;-89
2022/01/24 11:19:49;;;;;;;17.85;11.12;;;;;;;-3.63;100.00;101707.63;1697080;83;21157;-89
2022/01/24 11:22:20;;;;;;;17.02;9.75;;;;;;;-3.59;100.00;101717.81;1692551;83;21383;-87
2022/01/24 11:24:57;;;;;;;16.32;10.48;;;;;;;-3.53;100.00;101709.34;1713151;83;21137;-88
2022/01/24 11:27:22;;;;;;;16.73;10.50;;;;;;;-3.46;100.00;101703.80;1688002;83;21049;-88
2022/01/24 11:29:53;;;;;;;17.87;10.40;;;;;;;-3.39;100.00;101700.41;1684267;85;21563;-89
2022/01/24 11:32:40;;;;;;;18.10;10.85;;;;;;;-3.34;100.00;101704.66;1685789;85;21007;-88
2022/01/24 11:35:09;;;;;;;18.00;9.20;;;;;;;-3.29;100.00;101699.58;1683356;85;21055;-88
2022/01/24 11:37:44;;;;;;;35.60;19.65;;;;;;;-3.25;100.00;101696.59;1684293;84;21030;-87
2022/01/24 11:40:25;;;;;;;29.63;16.35;;;;;;;-3.23;100.00;101693.20;1672580;85;21664;-90
2022/01/24 11:42:53;;;;;;;24.55;14.58;;;;;;;-3.20;100.00;101700.84;1669085;85;21547;-90
2022/01/24 11:45:56;;;;;;;18.05;11.65;;;;;;;-3.15;100.00;101688.52;1685013;85;21871;-89
2022/01/24 11:48:19;;;;;;;30.25;17.32;;;;;;;-3.13;100.00;101682.59;1685763;83;21638;-89
2022/01/24 11:51:05;;;;;;;29.72;19.35;;;;;;;-3.13;100.00;101681.73;1674076;84;21092;-88
2022/01/24 11:53:35;;;;;;;19.10;11.45;;;;;;;-3.15;100.00;101683.42;1683851;84;21646;-88
2022/01/24 11:56:28;;;;;;;19.10;11.80;;;;;;;-3.18;100.00;101690.24;1682847;84;21511;-87
2022/01/24 11:59:22;;;;;;;18.27;11.60;;;;;;;-3.21;100.00;101695.77;1682999;84;21074;-87
2022/01/24 12:02:10;;;;;;;16.85;11.15;;;;;;;-3.26;100.00;101700.86;1600679;89;21651;-88
2022/01/24 12:05:01;;;;;;;14.78;9.00;;;;;;;-3.31;100.00;101705.09;1651534;84;21463;-89
2022/01/24 12:07:32;;;;;;;19.60;11.22;;;;;;;-3.39;100.00;101697.45;1670630;85;21023;-88
2022/01/24 12:10:35;;;;;;;19.10;9.73;;;;;;;-3.41;100.00;101700.42;1670199;84;21058;-88
2022/01/24 12:13:13;;;;;;;17.27;10.48;;;;;;;-3.34;100.00;101700.84;1666178;84;21102;-89
2022/01/24 12:15:45;;;;;;;14.98;10.20;;;;;;;-3.35;100.00;101704.67;1676918;83;21058;-87
2022/01/24 12:18:33;;;;;;;17.60;10.08;;;;;;;-3.39;100.00;101711.87;1679582;85;21061;-89
2022/01/24 12:21:09;;;;;;;18.23;11.03;;;;;;;-3.40;100.00;101715.27;1679055;83;21032;-90
2022/01/24 12:23:57;;;;;;;18.00;10.05;;;;;;;-3.43;100.00;101711.02;1686713;83;22281;-90
2022/01/24 12:26:47;;;;;;;15.48;10.05;;;;;;;-3.45;100.00;101719.52;1678439;83;21735;-92
2022/01/24 12:29:18;;;;;;;14.60;9.88;;;;;;;-3.52;100.00;101716.10;1688479;83;21356;-91
2022/01/24 12:31:52;;;;;;;14.75;9.78;;;;;;;-3.55;100.00;101718.23;1660434;84;21074;-94
2022/01/24 12:34:34;;;;;;;15.30;9.83;;;;;;;-3.54;100.00;101717.83;1699974;83;21591;-88
2022/01/24 12:37:08;;;;;;;19.98;13.78;;;;;;;-3.55;100.00;101720.77;1699923;83;21026;-88
2022/01/24 12:40:06;;;;;;;20.75;11.00;;;;;;;-3.58;100.00;101720.80;1680716;83;22753;-87
2022/01/24 12:42:52;;;;;;;25.88;15.08;;;;;;;-3.63;100.00;101713.98;1633806;86;21090;-87
2022/01/24 12:48:17;;;;;;;39.18;25.35;;;;;;;-3.74;100.00;101715.24;1679399;83;21136;-91
2022/01/24 12:50:48;;;;;;;26.73;17.85;;;;;;;-3.77;100.00;101712.68;1683510;83;21085;-91
2022/01/24 12:53:16;;;;;;;19.30;13.08;;;;;;;-3.78;100.00;101716.06;1684811;85;21149;-91
2022/01/24 12:55:45;;;;;;;19.62;10.80;;;;;;;-3.77;100.00;101706.31;1683455;85;21066;-88
2022/01/24 12:58:12;;;;;;;20.00;13.85;;;;;;;-3.79;100.00;101708.87;1683206;85;21155;-87
2022/01/24 13:00:45;;;;;;;22.67;14.55;;;;;;;-3.84;100.00;101703.77;1683573;84;21101;-91
2022/01/24 13:03:09;;;;;;;17.52;11.00;;;;;;;-3.88;100.00;101708.41;1683458;84;21136;-91
2022/01/24 13:05:38;;;;;;;19.55;13.13;;;;;;;-3.93;100.00;101705.02;1683210;84;21137;-90
2022/01/24 13:08:06;;;;;;;21.23;11.38;;;;;;;-3.94;100.00;101714.77;1683554;84;21058;-89